SLVR/VVI METAR and TAF weather

Enter ICAO airport designator
Station Type Date Time Source
SLVR METAR 2021/09/24 06:00 UTC NOAA

SLVR 240600Z 19014KT 9999 NSC 24/11 Q1017


Station Type Date Time Source
SLVR Decoded METAR 2021/09/24 06:00 UTC NOAA

Viru-Viru, Bolivia (SLVR) 17-38S 063-08W
Sep 24, 2021 - 02:00 AM EDT / 2021.09.24 0600 UTC
Wind: from the S (190 degrees) at 16 MPH (14 KT):0
Visibility: greater than 7 mile(s):0
Temperature: 75 F (24 C)
Dew Point: 51 F (11 C)
Relative Humidity: 43%
Pressure (altimeter): 30.03 in. Hg (1017 hPa)
ob: SLVR 240600Z 19014KT 9999 NSC 24/11 Q1017
cycle: 6

Station Type Date Time Source
SLVR TAF 2021/09/24 06:45 UTC NOAA

TAF SLVR 240400Z 2406/2506 20018KT 8000 NSC TX33/2419Z TN21/2410Z
TEMPO 2421/2423 VRB02KT
BECMG 2502/2504 24008KT

Example: see airport list